createdAt,value
2022-10-19T00:02:20.789Z,84.22
2022-10-19T00:04:47.302Z,84.04
2022-10-19T00:07:13.746Z,83.87
2022-10-19T00:09:40.223Z,83.56
2022-10-19T00:12:06.765Z,83.57
2022-10-19T00:14:33.292Z,83.36
2022-10-19T00:16:59.881Z,83.07
2022-10-19T00:19:27.622Z,82.92
2022-10-19T00:21:54.377Z,83.02
2022-10-19T00:24:21.113Z,82.60
2022-10-19T00:26:47.759Z,82.71
2022-10-19T00:29:15.409Z,83.19
2022-10-19T00:31:42.042Z,82.92
2022-10-19T00:34:08.581Z,82.20
2022-10-19T00:36:37.581Z,82.57
2022-10-19T00:39:06.775Z,81.86
2022-10-19T00:41:35.883Z,82.22
2022-10-19T00:44:04.542Z,82.33
2022-10-19T00:46:33.737Z,82.70
2022-10-19T00:49:16.069Z,82.74
2022-10-19T00:51:47.715Z,82.58
2022-10-19T00:54:15.622Z,83.03
2022-10-19T00:56:44.295Z,83.06
2022-10-19T00:59:14.798Z,82.88
2022-10-19T01:01:43.205Z,83.26
2022-10-19T01:04:10.923Z,83.90
2022-10-19T01:06:38.720Z,83.67
2022-10-19T01:09:06.074Z,83.90
2022-10-19T01:11:46.073Z,84.17
2022-10-19T01:14:26.834Z,84.54
2022-10-19T01:17:06.636Z,84.42
2022-10-19T01:19:56.639Z,83.24
2022-10-19T01:22:38.272Z,84.24
2022-10-19T01:25:27.648Z,83.92
2022-10-19T01:28:02.700Z,83.88
2022-10-19T01:31:03.281Z,83.92
2022-10-19T01:33:58.932Z,83.59
2022-10-19T01:36:47.702Z,83.60
2022-10-19T01:39:32.315Z,83.04
2022-10-19T01:42:28.793Z,83.03
2022-10-19T01:45:19.446Z,83.35
2022-10-19T01:47:55.377Z,83.33
2022-10-19T01:50:27.373Z,82.86
2022-10-19T01:52:56.141Z,83.36
2022-10-19T01:55:25.839Z,82.84
2022-10-19T01:57:59.183Z,83.10
2022-10-19T02:00:27.490Z,83.20
2022-10-19T02:02:55.187Z,82.82
2022-10-19T02:05:27.663Z,82.35
2022-10-19T02:07:59.567Z,82.55
2022-10-19T02:10:27.455Z,82.25
2022-10-19T02:12:56.432Z,82.73
2022-10-19T02:15:26.988Z,82.65
2022-10-19T02:17:57.300Z,82.40
2022-10-19T02:20:24.068Z,81.72
2022-10-19T02:22:50.733Z,82.22
2022-10-19T02:25:17.497Z,81.99
2022-10-19T02:27:44.616Z,81.91
2022-10-19T02:30:14.770Z,82.08
2022-10-19T02:32:42.387Z,82.06
2022-10-19T02:35:10.417Z,82.53
2022-10-19T02:37:37.121Z,82.43
2022-10-19T02:40:04.962Z,82.14
2022-10-19T02:42:39.622Z,82.24
2022-10-19T02:45:25.729Z,82.19
2022-10-19T02:48:00.282Z,81.83
2022-10-19T02:50:28.080Z,81.81
2022-10-19T02:52:54.562Z,81.53
2022-10-19T02:55:21.025Z,81.47
2022-10-19T02:57:47.462Z,80.61
2022-10-19T03:00:14.248Z,80.75
2022-10-19T03:02:40.848Z,80.38
2022-10-19T03:05:07.523Z,80.93
2022-10-19T03:07:34.454Z,80.89
2022-10-19T03:10:01.600Z,80.63
2022-10-19T03:12:28.257Z,80.43
2022-10-19T03:14:54.728Z,80.64
2022-10-19T03:17:21.270Z,80.69
2022-10-19T03:19:47.725Z,80.87
2022-10-19T03:22:14.984Z,80.89
2022-10-19T03:24:41.632Z,80.72
2022-10-19T03:27:08.043Z,80.15
2022-10-19T03:29:34.467Z,80.19
2022-10-19T03:32:00.908Z,80.02
2022-10-19T03:34:27.326Z,80.07
2022-10-19T03:36:53.814Z,79.65
2022-10-19T03:39:20.227Z,80.24
2022-10-19T03:41:46.708Z,80.37
2022-10-19T03:44:13.634Z,80.28
2022-10-19T03:46:40.659Z,80.34
2022-10-19T03:49:07.612Z,80.28
2022-10-19T03:51:35.199Z,80.72
2022-10-19T03:54:04.829Z,80.84
2022-10-19T03:56:32.341Z,80.68
2022-10-19T03:59:00.660Z,80.66
2022-10-19T04:01:36.193Z,80.29
2022-10-19T04:04:05.797Z,80.38
2022-10-19T04:06:35.701Z,80.42
2022-10-19T04:09:03.623Z,80.83
2022-10-19T04:11:32.358Z,81.01
2022-10-19T04:13:59.895Z,81.67
2022-10-19T04:16:29.019Z,81.38
2022-10-19T04:18:55.883Z,81.62
2022-10-19T04:21:26.913Z,81.62
2022-10-19T04:23:58.444Z,82.08
2022-10-19T04:26:24.932Z,82.28
2022-10-19T04:28:51.454Z,82.47
2022-10-19T04:31:17.958Z,82.69
2022-10-19T04:36:16.006Z,82.90
2022-10-19T04:38:42.445Z,82.45
2022-10-19T04:41:12.259Z,82.88
2022-10-19T04:43:39.410Z,83.41
2022-10-19T04:46:10.910Z,83.28
2022-10-19T04:48:38.861Z,83.24
2022-10-19T04:51:05.941Z,83.43
2022-10-19T04:53:33.804Z,83.59
2022-10-19T04:56:05.229Z,83.22
2022-10-19T04:58:31.840Z,83.71
2022-10-19T05:00:58.370Z,83.60
2022-10-19T05:03:24.913Z,83.78
2022-10-19T05:05:51.374Z,83.84
2022-10-19T05:08:17.833Z,84.01
2022-10-19T05:10:47.604Z,83.93
2022-10-19T05:13:14.890Z,83.98
2022-10-19T05:15:41.653Z,83.90
2022-10-19T05:18:08.131Z,84.33
2022-10-19T05:20:34.625Z,83.99
2022-10-19T05:23:06.155Z,84.17
2022-10-19T05:25:33.856Z,84.82
2022-10-19T05:28:00.270Z,84.48
2022-10-19T05:30:26.715Z,84.32
2022-10-19T05:32:53.157Z,84.49
2022-10-19T05:35:22.437Z,84.59
2022-10-19T05:37:53.569Z,84.96
2022-10-19T05:40:20.055Z,84.39
2022-10-19T05:42:46.499Z,84.95
2022-10-19T05:45:12.957Z,84.49
2022-10-19T05:47:39.403Z,84.67
2022-10-19T05:50:06.160Z,84.21
2022-10-19T05:52:32.588Z,84.46
2022-10-19T05:54:59.065Z,84.43
2022-10-19T05:57:25.848Z,84.52
2022-10-19T05:59:52.334Z,84.65
2022-10-19T06:02:18.750Z,84.98
2022-10-19T06:04:45.187Z,84.81
2022-10-19T06:07:11.612Z,84.89
2022-10-19T06:09:38.081Z,85.03
2022-10-19T06:12:04.590Z,84.64
2022-10-19T06:14:31.083Z,85.10
2022-10-19T06:16:57.547Z,84.99
2022-10-19T06:19:24.066Z,84.96
2022-10-19T06:21:50.567Z,84.68
2022-10-19T06:24:17.020Z,84.12
2022-10-19T06:26:43.516Z,84.40
2022-10-19T06:29:10.249Z,84.54
2022-10-19T06:31:37.182Z,84.14
2022-10-19T06:34:04.462Z,85.02
2022-10-19T06:36:32.064Z,85.61
2022-10-19T06:38:59.931Z,85.73
2022-10-19T06:41:27.170Z,85.97
2022-10-19T06:43:55.051Z,86.10
2022-10-19T06:46:23.600Z,85.90
2022-10-19T06:48:55.431Z,85.88
2022-10-19T06:51:22.801Z,85.36
2022-10-19T06:53:52.802Z,85.26
2022-10-19T06:56:24.445Z,85.48
2022-10-19T06:58:52.191Z,85.13
2022-10-19T07:01:18.854Z,84.97
2022-10-19T07:03:45.460Z,85.06
2022-10-19T07:06:13.151Z,85.28
2022-10-19T07:08:41.909Z,85.03
2022-10-19T07:11:12.089Z,84.83
2022-10-19T07:13:39.158Z,84.72
2022-10-19T07:16:15.779Z,84.70
2022-10-19T07:18:46.713Z,84.59
2022-10-19T07:21:15.214Z,84.22
2022-10-19T07:23:43.320Z,84.02
2022-10-19T07:26:20.771Z,84.19
2022-10-19T07:28:47.999Z,84.25
2022-10-19T07:31:17.954Z,84.54
2022-10-19T07:33:44.981Z,84.23
2022-10-19T07:36:13.564Z,84.64
2022-10-19T07:38:40.551Z,84.31
2022-10-19T07:41:14.656Z,84.24
2022-10-19T07:43:42.831Z,84.07
2022-10-19T07:46:14.852Z,84.02
2022-10-19T07:48:41.931Z,83.70
2022-10-19T07:51:10.763Z,83.96
2022-10-19T07:53:38.162Z,83.89
2022-10-19T07:56:06.284Z,83.38
2022-10-19T07:58:33.033Z,83.62
2022-10-19T08:01:07.697Z,83.57
2022-10-19T08:06:24.136Z,83.21
2022-10-19T08:08:51.758Z,83.29
2022-10-19T08:11:21.915Z,83.14
2022-10-19T08:13:48.722Z,82.92
2022-10-19T08:16:24.066Z,82.67
2022-10-19T08:18:51.615Z,83.11
2022-10-19T08:21:18.245Z,83.21
2022-10-19T08:23:44.680Z,83.18
2022-10-19T08:26:11.127Z,82.95
2022-10-19T08:28:37.604Z,82.44
2022-10-19T08:31:18.639Z,82.35
2022-10-19T08:33:45.487Z,82.13
2022-10-19T08:36:13.616Z,82.41
2022-10-19T08:38:41.355Z,81.80
2022-10-19T08:41:46.268Z,82.36
2022-10-19T08:44:24.850Z,82.29
2022-10-19T08:47:23.188Z,82.45
2022-10-19T08:49:51.052Z,81.89
2022-10-19T08:52:51.171Z,80.82
2022-10-19T08:55:24.178Z,81.47
2022-10-19T08:57:59.753Z,81.02
2022-10-19T09:00:43.298Z,81.10
2022-10-19T09:03:54.965Z,80.55
2022-10-19T09:06:44.890Z,79.19
2022-10-19T09:09:13.652Z,79.14
2022-10-19T09:11:44.344Z,79.56
2022-10-19T09:14:18.253Z,78.89
2022-10-19T09:16:44.796Z,78.33
2022-10-19T09:19:18.275Z,78.35
2022-10-19T09:21:50.876Z,78.79
2022-10-19T09:24:43.939Z,78.62
2022-10-19T09:27:19.040Z,77.59
2022-10-19T09:29:51.509Z,78.39
2022-10-19T09:32:24.250Z,77.28
2022-10-19T09:34:57.736Z,77.39
2022-10-19T09:37:26.645Z,76.96
2022-10-19T09:39:55.548Z,76.54
2022-10-19T09:42:22.975Z,76.13
2022-10-19T09:44:51.956Z,75.68
2022-10-19T09:47:39.609Z,75.37
2022-10-19T09:50:21.711Z,75.83
2022-10-19T09:52:53.658Z,74.95
2022-10-19T09:55:46.495Z,75.06
2022-10-19T09:58:12.929Z,74.67
2022-10-19T10:00:51.221Z,73.73
2022-10-19T10:03:25.859Z,73.53
2022-10-19T10:05:53.193Z,73.16
2022-10-19T10:08:23.192Z,72.96
2022-10-19T10:11:04.440Z,72.50
2022-10-19T10:13:31.019Z,73.22
2022-10-19T10:16:01.316Z,73.19
2022-10-19T10:18:29.535Z,73.01
2022-10-19T10:21:00.494Z,72.38
2022-10-19T10:23:32.082Z,72.28
2022-10-19T10:25:59.802Z,71.58
2022-10-19T10:28:28.571Z,71.02
2022-10-19T10:31:01.870Z,70.99
2022-10-19T10:33:44.085Z,70.63
2022-10-19T10:36:12.612Z,69.94
2022-10-19T10:38:45.959Z,69.11
2022-10-19T10:41:15.948Z,69.17
2022-10-19T10:44:04.629Z,69.54
2022-10-19T10:46:50.201Z,69.06
2022-10-19T10:49:23.324Z,69.60
2022-10-19T10:51:59.845Z,69.33
2022-10-19T10:54:32.069Z,70.44
2022-10-19T10:57:16.766Z,69.81
2022-10-19T10:59:54.087Z,69.06
2022-10-19T11:02:42.251Z,66.46
2022-10-19T11:05:19.336Z,67.60
2022-10-19T11:07:48.293Z,66.17
2022-10-19T11:10:22.416Z,65.94
2022-10-19T11:13:12.753Z,65.74
2022-10-19T11:15:59.301Z,64.36
2022-10-19T11:18:43.787Z,64.36
2022-10-19T11:21:16.478Z,63.94
2022-10-19T11:23:55.067Z,63.12
2022-10-19T11:26:33.752Z,62.42
2022-10-19T11:29:35.880Z,62.15
2022-10-19T11:32:02.936Z,62.46
2022-10-19T11:34:37.971Z,62.28
2022-10-19T11:37:22.961Z,64.32
2022-10-19T11:40:22.364Z,63.24
2022-10-19T11:42:53.495Z,62.91
2022-10-19T11:45:28.901Z,61.19
2022-10-19T11:48:29.476Z,60.22
2022-10-19T11:51:21.070Z,59.68
2022-10-19T11:54:14.535Z,58.17
2022-10-19T11:57:13.488Z,58.40
2022-10-19T12:00:14.999Z,58.30
2022-10-19T12:03:26.508Z,57.89
2022-10-19T12:06:11.861Z,56.51
2022-10-19T12:09:20.783Z,55.19
2022-10-19T12:12:07.646Z,54.59
2022-10-19T12:14:40.705Z,56.31
2022-10-19T12:17:18.019Z,57.34
2022-10-19T12:19:49.434Z,56.60
2022-10-19T12:22:22.378Z,56.15
2022-10-19T12:24:50.789Z,56.99
2022-10-19T12:27:24.450Z,57.64
2022-10-19T12:29:52.226Z,57.61
2022-10-19T12:32:24.374Z,57.17
2022-10-19T12:35:00.647Z,55.63
2022-10-19T12:37:42.341Z,57.92
2022-10-19T12:40:22.935Z,55.72
2022-10-19T12:43:17.107Z,56.84
2022-10-19T12:45:54.609Z,57.23
2022-10-19T12:48:24.433Z,55.86
2022-10-19T12:50:52.423Z,56.82
2022-10-19T12:53:36.364Z,56.21
2022-10-19T12:56:07.492Z,56.96
2022-10-19T12:58:47.698Z,57.68
2022-10-19T13:01:23.507Z,58.28
2022-10-19T13:04:07.658Z,57.12
2022-10-19T13:06:38.117Z,57.32
2022-10-19T13:09:18.028Z,57.48
2022-10-19T13:12:16.309Z,55.86
2022-10-19T13:14:52.154Z,55.96
2022-10-19T13:17:34.377Z,56.72
2022-10-19T13:20:13.144Z,56.00
2022-10-19T13:22:40.533Z,57.19
2022-10-19T13:25:23.813Z,57.96
2022-10-19T13:27:52.239Z,58.12
2022-10-19T13:30:37.287Z,58.02
2022-10-19T13:33:22.596Z,58.29
2022-10-19T13:35:49.332Z,58.69
2022-10-19T13:38:15.761Z,58.69
2022-10-19T13:40:48.385Z,58.68
2022-10-19T13:43:38.448Z,58.59
2022-10-19T13:46:07.585Z,58.75
2022-10-19T13:48:38.511Z,59.57
2022-10-19T13:51:36.110Z,58.61
2022-10-19T13:54:21.528Z,59.55
2022-10-19T13:57:03.707Z,60.16
2022-10-19T14:00:01.907Z,59.55
2022-10-19T14:03:08.059Z,60.15
2022-10-19T14:05:57.661Z,59.79
2022-10-19T14:08:40.996Z,60.05
2022-10-19T14:11:17.347Z,61.79
2022-10-19T14:13:44.072Z,61.92
2022-10-19T14:16:21.716Z,63.07
2022-10-19T14:18:56.073Z,63.03
2022-10-19T14:21:31.060Z,63.31
2022-10-19T14:23:57.854Z,63.92
2022-10-19T14:26:28.554Z,63.67
2022-10-19T14:28:59.706Z,64.44
2022-10-19T14:31:33.886Z,64.16
2022-10-19T14:34:03.834Z,63.77
2022-10-19T14:36:37.479Z,64.41
2022-10-19T14:39:04.468Z,64.53
2022-10-19T14:41:38.078Z,63.93
2022-10-19T14:44:36.342Z,64.78
2022-10-19T14:47:14.930Z,65.22
2022-10-19T14:49:41.419Z,64.39
2022-10-19T14:52:09.471Z,64.62
2022-10-19T14:54:41.327Z,64.91
2022-10-19T14:57:26.440Z,63.93
2022-10-19T15:00:03.724Z,64.77
2022-10-19T15:02:36.893Z,64.67
2022-10-19T15:05:06.643Z,64.81
2022-10-19T15:07:39.823Z,65.37
2022-10-19T15:10:20.173Z,65.79
2022-10-19T15:12:47.443Z,66.39
2022-10-19T15:15:19.074Z,66.33
2022-10-19T15:17:52.682Z,66.11
2022-10-19T15:20:43.931Z,65.55
2022-10-19T15:23:41.153Z,65.89
2022-10-19T15:26:17.362Z,66.12
2022-10-19T15:28:44.425Z,65.78
2022-10-19T15:31:19.562Z,66.36
2022-10-19T15:33:53.434Z,66.20
2022-10-19T15:36:21.828Z,66.17
2022-10-19T15:39:06.316Z,66.21
2022-10-19T15:41:44.770Z,66.33
2022-10-19T15:44:31.862Z,66.88
2022-10-19T15:47:16.449Z,66.87
2022-10-19T15:49:42.875Z,67.35
2022-10-19T15:52:18.921Z,67.89
2022-10-19T15:54:56.902Z,67.90
2022-10-19T15:57:36.046Z,68.01
2022-10-19T16:00:14.761Z,67.98
2022-10-19T16:02:41.469Z,67.84
2022-10-19T16:05:08.856Z,67.63
2022-10-19T16:07:38.755Z,67.65
2022-10-19T16:10:06.158Z,67.71
2022-10-19T16:12:32.695Z,67.66
2022-10-19T16:14:59.421Z,67.56
2022-10-19T16:17:25.867Z,68.23
2022-10-19T16:19:52.322Z,68.53
2022-10-19T16:22:18.770Z,68.37
2022-10-19T16:24:45.255Z,68.47
2022-10-19T16:27:15.123Z,68.23
2022-10-19T16:29:44.133Z,68.45
2022-10-19T16:32:10.605Z,68.39
2022-10-19T16:34:37.138Z,68.40
2022-10-19T16:37:06.702Z,68.72
2022-10-19T16:39:33.960Z,68.57
2022-10-19T16:42:00.469Z,68.75
2022-10-19T16:44:26.967Z,68.83
2022-10-19T16:46:56.047Z,68.74
2022-10-19T16:49:22.536Z,68.79
2022-10-19T16:51:50.954Z,69.07
2022-10-19T16:54:19.875Z,69.50
2022-10-19T16:56:47.769Z,69.17
2022-10-19T16:59:16.736Z,69.35
2022-10-19T17:01:45.322Z,69.42
2022-10-19T17:04:13.222Z,69.56
2022-10-19T17:06:40.734Z,69.68
2022-10-19T17:09:37.113Z,70.03
2022-10-19T17:11:54.435Z,70.08
2022-10-19T17:14:20.873Z,70.51
2022-10-19T17:16:47.342Z,70.64
2022-10-19T17:19:13.933Z,70.79
2022-10-19T17:21:42.306Z,70.09
2022-10-19T17:24:20.084Z,70.61
2022-10-19T17:26:49.604Z,71.00
2022-10-19T17:29:16.136Z,70.86
2022-10-19T17:31:43.370Z,71.34
2022-10-19T17:34:10.533Z,70.13
2022-10-19T17:39:17.490Z,69.12
2022-10-19T17:41:48.248Z,69.55
2022-10-19T17:44:15.966Z,70.19
2022-10-19T17:46:42.846Z,70.97
2022-10-19T17:49:10.504Z,71.59
2022-10-19T17:51:38.129Z,71.27
2022-10-19T17:54:07.654Z,71.28
2022-10-19T17:56:35.802Z,71.00
2022-10-19T17:59:03.168Z,71.41
2022-10-19T18:01:30.835Z,70.69
2022-10-19T18:03:57.393Z,70.95
2022-10-19T18:06:26.850Z,71.48
2022-10-19T18:08:55.574Z,71.57
2022-10-19T18:11:34.565Z,70.88
2022-10-19T18:14:01.860Z,70.84
2022-10-19T18:16:37.544Z,71.04
2022-10-19T18:19:05.484Z,70.96
2022-10-19T18:21:35.594Z,71.59
2022-10-19T18:24:03.171Z,72.41
2022-10-19T18:26:32.330Z,72.80
2022-10-19T18:29:00.677Z,72.30
2022-10-19T18:31:29.811Z,71.52
2022-10-19T18:34:01.625Z,71.52
2022-10-19T18:36:28.449Z,72.06
2022-10-19T18:38:57.111Z,72.20
2022-10-19T18:41:24.291Z,72.22
2022-10-19T18:43:55.674Z,72.05
2022-10-19T18:46:23.743Z,71.76
2022-10-19T18:48:50.274Z,71.05
2022-10-19T18:51:19.208Z,71.86
2022-10-19T18:53:47.240Z,70.70
2022-10-19T18:56:16.433Z,70.03
2022-10-19T18:58:43.496Z,69.04
2022-10-19T19:01:12.825Z,70.02
2022-10-19T19:03:42.193Z,70.51
2022-10-19T19:06:16.955Z,70.94
2022-10-19T19:11:21.860Z,71.85
2022-10-19T19:13:51.152Z,72.57
2022-10-19T19:16:18.515Z,71.54
2022-10-19T19:18:45.021Z,72.89
2022-10-19T19:21:16.693Z,72.19
2022-10-19T19:23:43.687Z,71.96
2022-10-19T19:26:12.770Z,72.32
2022-10-19T19:28:41.786Z,72.31
2022-10-19T19:31:10.552Z,72.84
2022-10-19T19:33:37.468Z,73.46
2022-10-19T19:36:08.637Z,73.21
2022-10-19T19:38:36.301Z,73.34
2022-10-19T19:41:07.745Z,73.49
2022-10-19T19:43:36.998Z,73.00
2022-10-19T19:46:14.714Z,72.70
2022-10-19T19:48:43.233Z,72.78
2022-10-19T19:51:12.348Z,72.93
2022-10-19T19:53:39.139Z,72.74
2022-10-19T19:56:07.143Z,72.46
2022-10-19T19:58:33.859Z,72.88
2022-10-19T20:01:00.826Z,73.24
2022-10-19T20:03:27.320Z,74.32
2022-10-19T20:05:53.805Z,74.53
2022-10-19T20:08:20.273Z,74.63
2022-10-19T20:10:46.751Z,75.06
2022-10-19T20:13:13.199Z,74.87
2022-10-19T20:15:39.771Z,74.77
2022-10-19T20:18:06.781Z,74.68
2022-10-19T20:20:33.244Z,74.65
2022-10-19T20:22:59.728Z,75.26
2022-10-19T20:25:26.306Z,75.32
2022-10-19T20:27:52.786Z,75.88
2022-10-19T20:30:19.356Z,76.08
2022-10-19T20:32:45.779Z,76.58
2022-10-19T20:35:12.283Z,76.34
2022-10-19T20:37:38.704Z,76.98
2022-10-19T20:40:08.507Z,78.07
2022-10-19T20:42:35.716Z,78.45
2022-10-19T20:45:02.518Z,78.60
2022-10-19T20:47:29.836Z,80.14
2022-10-19T20:49:56.409Z,81.20
2022-10-19T20:52:22.952Z,81.16
2022-10-19T20:54:49.504Z,81.39
2022-10-19T20:57:16.057Z,81.40
2022-10-19T20:59:43.891Z,81.65
2022-10-19T21:02:10.996Z,81.78
2022-10-19T21:04:37.586Z,81.94
2022-10-19T21:07:04.975Z,81.51
2022-10-19T21:09:31.639Z,81.95
2022-10-19T21:11:58.202Z,81.65
2022-10-19T21:14:28.615Z,81.66
2022-10-19T21:16:57.728Z,81.25
2022-10-19T21:19:25.795Z,81.05
2022-10-19T21:21:55.478Z,80.76
2022-10-19T21:24:26.945Z,81.07
2022-10-19T21:26:54.006Z,81.23
2022-10-19T21:29:21.278Z,80.08
2022-10-19T21:31:49.850Z,78.21
2022-10-19T21:34:19.365Z,78.48
2022-10-19T21:36:46.439Z,80.16
2022-10-19T21:39:13.211Z,81.12
2022-10-19T21:41:39.649Z,81.11
2022-10-19T21:44:06.123Z,81.06
2022-10-19T21:46:32.605Z,80.93
2022-10-19T21:48:59.137Z,81.12
2022-10-19T21:51:39.550Z,81.54
2022-10-19T21:54:07.889Z,81.94
2022-10-19T21:56:34.755Z,82.01
2022-10-19T21:59:01.245Z,81.75
2022-10-19T22:01:29.597Z,81.98
2022-10-19T22:03:57.071Z,81.71
2022-10-19T22:06:24.969Z,81.83
2022-10-19T22:08:51.490Z,81.96
2022-10-19T22:11:17.992Z,81.92
2022-10-19T22:13:44.555Z,81.30
2022-10-19T22:16:15.648Z,81.77
2022-10-19T22:18:42.277Z,81.52
2022-10-19T22:21:14.029Z,81.43
2022-10-19T22:23:40.713Z,81.13
2022-10-19T22:26:18.456Z,81.35
2022-10-19T22:28:45.460Z,81.56
2022-10-19T22:31:12.613Z,81.36
2022-10-19T22:33:39.842Z,81.27
2022-10-19T22:36:08.023Z,81.28
2022-10-19T22:38:35.199Z,81.79
2022-10-19T22:41:01.723Z,81.78
2022-10-19T22:43:28.176Z,81.74
2022-10-19T22:45:54.632Z,81.82
2022-10-19T22:48:21.051Z,81.99
2022-10-19T22:50:47.538Z,81.70
2022-10-19T22:53:14.064Z,81.79
2022-10-19T22:55:40.637Z,81.65
2022-10-19T22:58:08.852Z,82.04
2022-10-19T23:00:35.755Z,81.85
2022-10-19T23:03:02.275Z,82.01
2022-10-19T23:05:28.704Z,81.78
2022-10-19T23:07:55.121Z,81.71
2022-10-19T23:10:21.723Z,81.43
2022-10-19T23:12:52.655Z,82.11
2022-10-19T23:15:20.793Z,82.11
2022-10-19T23:17:47.713Z,81.95
2022-10-19T23:20:14.386Z,82.02
2022-10-19T23:22:40.893Z,82.27
2022-10-19T23:25:08.342Z,82.43
2022-10-19T23:27:35.223Z,82.07
2022-10-19T23:30:02.670Z,82.65
2022-10-19T23:32:29.157Z,82.49
2022-10-19T23:34:55.615Z,82.35
2022-10-19T23:37:22.052Z,82.44
2022-10-19T23:39:48.495Z,82.50
2022-10-19T23:42:14.919Z,82.43
2022-10-19T23:44:41.398Z,82.45
2022-10-19T23:47:07.805Z,82.53
2022-10-19T23:49:34.227Z,82.46
2022-10-19T23:52:00.714Z,82.34
2022-10-19T23:54:27.180Z,82.27
2022-10-19T23:56:53.637Z,82.20
2022-10-19T23:59:20.219Z,81.84
